createdAt,value
2022-08-31T00:00:11.366Z,147942.75
2022-08-31T00:02:57.413Z,147893.81
2022-08-31T00:05:24.813Z,147945.22
2022-08-31T00:07:52.681Z,147947.63
2022-08-31T00:10:22.273Z,147923.16
2022-08-31T00:13:00.409Z,147964.75
2022-08-31T00:15:29.940Z,147924.34
2022-08-31T00:17:57.434Z,147912.16
2022-08-31T00:20:34.394Z,147925.59
2022-08-31T00:23:04.365Z,147907.28
2022-08-31T00:25:32.007Z,147907.28
2022-08-31T00:27:59.041Z,147895.03
2022-08-31T00:30:26.525Z,147880.38
2022-08-31T00:32:53.586Z,147884.03
2022-08-31T00:35:24.417Z,147912.16
2022-08-31T00:37:51.494Z,147862.03
2022-08-31T00:40:19.025Z,147857.16
2022-08-31T00:42:46.468Z,147874.22
2022-08-31T00:45:14.020Z,147874.22
2022-08-31T00:47:41.139Z,147884.03
2022-08-31T00:50:13.347Z,147896.25
2022-08-31T00:52:46.348Z,147873.00
2022-08-31T00:55:21.344Z,147876.69
2022-08-31T00:57:52.867Z,147871.81
2022-08-31T01:00:23.085Z,147876.69
2022-08-31T01:02:50.685Z,147875.47
2022-08-31T01:05:18.939Z,147864.44
2022-08-31T01:07:48.592Z,147875.47
2022-08-31T01:10:19.279Z,147814.31
2022-08-31T01:12:47.851Z,147891.34
2022-08-31T01:15:18.531Z,147844.91
2022-08-31T01:17:49.169Z,147810.69
2022-08-31T01:20:23.550Z,147844.91
2022-08-31T01:23:08.639Z,147842.47
2022-08-31T01:25:38.214Z,147874.22
2022-08-31T01:28:08.050Z,147888.94
2022-08-31T01:30:36.517Z,147881.56
2022-08-31T01:33:03.975Z,147864.44
2022-08-31T01:35:32.593Z,147846.13
2022-08-31T01:38:01.280Z,147844.91
2022-08-31T01:40:35.232Z,147857.16
2022-08-31T01:43:02.670Z,147791.09
2022-08-31T01:45:29.795Z,147846.13
2022-08-31T01:47:58.986Z,147846.13
2022-08-31T01:50:26.575Z,147871.81
2022-08-31T01:52:53.668Z,147865.72
2022-08-31T01:55:20.831Z,147884.03
2022-08-31T01:57:49.021Z,147854.69
2022-08-31T02:00:40.168Z,147849.78
2022-08-31T02:03:07.965Z,147862.03
2022-08-31T02:05:37.637Z,147847.38
2022-08-31T02:08:08.458Z,147838.81
2022-08-31T02:10:35.668Z,147783.81
2022-08-31T02:13:03.956Z,147837.53
2022-08-31T02:15:32.350Z,147851.00
2022-08-31T02:17:59.802Z,147840.00
2022-08-31T02:20:27.061Z,147816.78
2022-08-31T02:22:54.119Z,147813.13
2022-08-31T02:25:21.247Z,147857.16
2022-08-31T02:27:48.562Z,147886.47
2022-08-31T02:30:18.525Z,147893.81
2022-08-31T02:32:45.762Z,147820.47
2022-08-31T02:35:13.654Z,147864.44
2022-08-31T02:37:40.745Z,147891.34
2022-08-31T02:40:12.298Z,147825.34
2022-08-31T02:42:52.972Z,147896.25
2022-08-31T02:45:24.115Z,147898.69
2022-08-31T02:47:51.608Z,147849.78
2022-08-31T02:50:25.435Z,147864.44
2022-08-31T02:52:55.273Z,147796.00
2022-08-31T02:55:26.595Z,147678.66
2022-08-31T02:57:53.689Z,147764.22
2022-08-31T03:00:23.266Z,147639.53
2022-08-31T03:02:51.017Z,147626.09
2022-08-31T03:05:18.955Z,147517.41
2022-08-31T03:07:46.355Z,147536.94
2022-08-31T03:10:14.688Z,147529.59
2022-08-31T03:12:42.274Z,147507.59
2022-08-31T03:15:10.425Z,147474.59
2022-08-31T03:17:38.013Z,147361.03
2022-08-31T03:20:08.130Z,147417.22
2022-08-31T03:22:36.106Z,147374.44
2022-08-31T03:25:05.629Z,147428.19
2022-08-31T03:27:32.722Z,147431.88
2022-08-31T03:30:00.713Z,147401.31
2022-08-31T03:32:31.664Z,147397.66
2022-08-31T03:35:00.370Z,147437.94
2022-08-31T03:37:28.649Z,147446.50
2022-08-31T03:39:59.541Z,147392.75
2022-08-31T03:42:27.468Z,147429.41
2022-08-31T03:44:55.589Z,147409.88
2022-08-31T03:47:28.688Z,147424.50
2022-08-31T03:49:56.733Z,147453.84
2022-08-31T03:52:27.455Z,147397.66
2022-08-31T03:55:10.846Z,147389.13
2022-08-31T03:57:39.280Z,147378.13
2022-08-31T04:00:07.904Z,147372.03
2022-08-31T04:02:41.752Z,147378.13
2022-08-31T04:05:35.674Z,147354.94
2022-08-31T04:08:17.137Z,147351.25
2022-08-31T04:11:08.452Z,147365.94
2022-08-31T04:13:53.919Z,147370.81
2022-08-31T04:16:24.808Z,147357.38
2022-08-31T04:18:52.349Z,147362.28
2022-08-31T04:21:24.155Z,147358.59
2022-08-31T04:23:53.168Z,147354.94
2022-08-31T04:26:24.127Z,147351.25
2022-08-31T04:28:52.039Z,147351.25
2022-08-31T04:31:21.195Z,147341.50
2022-08-31T04:33:49.546Z,147351.25
2022-08-31T04:36:21.436Z,147335.41
2022-08-31T04:38:53.560Z,147317.09
2022-08-31T04:41:23.314Z,147334.19
2022-08-31T04:43:55.982Z,147340.28
2022-08-31T04:46:24.517Z,147343.97
2022-08-31T04:48:52.170Z,147339.06
2022-08-31T04:51:22.195Z,147297.56
2022-08-31T04:53:50.679Z,147346.38
2022-08-31T04:56:21.352Z,147324.41
2022-08-31T04:58:55.969Z,147329.31
2022-08-31T05:01:25.802Z,147331.72
2022-08-31T05:04:16.715Z,147324.41
2022-08-31T05:06:45.582Z,147345.16
2022-08-31T05:09:18.502Z,147300.00
2022-08-31T05:11:50.060Z,147356.13
2022-08-31T05:14:17.849Z,147340.28
2022-08-31T05:16:51.413Z,147336.63
2022-08-31T05:19:20.211Z,147339.06
2022-08-31T05:21:48.389Z,147339.06
2022-08-31T05:24:22.475Z,147341.50
2022-08-31T05:26:53.047Z,147352.50
2022-08-31T05:29:24.365Z,147296.31
2022-08-31T05:31:59.193Z,147396.44
2022-08-31T05:34:26.772Z,147376.91
2022-08-31T05:36:56.170Z,147406.19
2022-08-31T05:39:24.410Z,147412.34
2022-08-31T05:41:51.724Z,147383.00
2022-08-31T05:44:21.241Z,147395.22
2022-08-31T05:46:52.365Z,147401.31
2022-08-31T05:49:28.179Z,147383.00
2022-08-31T05:51:57.049Z,147397.66
2022-08-31T05:54:24.258Z,147409.88
2022-08-31T05:56:51.622Z,147380.59
2022-08-31T05:59:19.254Z,147341.50
2022-08-31T06:01:46.561Z,147378.13
2022-08-31T06:04:13.770Z,147370.81
2022-08-31T06:06:42.439Z,147383.00
2022-08-31T06:09:12.565Z,147384.25
2022-08-31T06:11:42.122Z,147409.88
2022-08-31T06:14:12.652Z,147430.66
2022-08-31T06:16:44.152Z,147426.97
2022-08-31T06:19:12.236Z,147475.84
2022-08-31T06:21:49.918Z,147480.72
2022-08-31T06:24:22.191Z,147496.63
2022-08-31T06:26:57.890Z,147483.13
2022-08-31T06:29:31.273Z,147473.38
2022-08-31T06:32:00.526Z,147478.25
2022-08-31T06:34:29.201Z,147459.94
2022-08-31T06:37:06.231Z,147488.03
2022-08-31T06:39:41.630Z,147497.84
2022-08-31T06:42:12.198Z,147492.94
2022-08-31T06:44:58.993Z,147497.84
2022-08-31T06:47:38.464Z,147500.28
2022-08-31T06:50:07.119Z,147507.59
2022-08-31T06:52:38.691Z,147514.94
2022-08-31T06:55:26.321Z,147523.50
2022-08-31T06:58:12.002Z,147517.41
2022-08-31T07:00:59.220Z,147514.94
2022-08-31T07:03:34.443Z,147546.69
2022-08-31T07:06:09.895Z,147566.25
2022-08-31T07:08:40.030Z,147585.81
2022-08-31T07:11:20.954Z,147596.78
2022-08-31T07:13:48.561Z,147598.00
2022-08-31T07:16:18.385Z,147627.34
2022-08-31T07:18:47.115Z,147629.75
2022-08-31T07:21:18.444Z,147659.13
2022-08-31T07:23:46.549Z,147668.88
2022-08-31T07:26:36.171Z,147683.53
2022-08-31T07:29:06.447Z,147707.97
2022-08-31T07:31:42.648Z,147715.31
2022-08-31T07:34:11.013Z,147725.13
2022-08-31T07:37:07.985Z,147803.34
2022-08-31T07:39:56.772Z,147798.47
2022-08-31T07:42:28.627Z,147803.34
2022-08-31T07:44:58.063Z,147808.22
2022-08-31T07:47:28.281Z,147787.47
2022-08-31T07:49:58.381Z,147857.16
2022-08-31T07:52:33.530Z,147865.72
2022-08-31T07:55:11.786Z,147869.34
2022-08-31T07:57:59.118Z,147881.56
2022-08-31T08:00:33.030Z,147893.81
2022-08-31T08:03:07.891Z,147908.47
2022-08-31T08:05:55.343Z,147986.78
2022-08-31T08:09:33.763Z,147974.53
2022-08-31T08:12:01.005Z,147970.91
2022-08-31T08:14:48.654Z,148024.69
2022-08-31T08:17:32.754Z,148021.00
2022-08-31T08:20:13.724Z,148109.09
2022-08-31T08:22:54.981Z,148121.31
2022-08-31T08:25:34.647Z,148170.28
2022-08-31T08:28:22.720Z,148184.97
2022-08-31T08:31:01.059Z,148240.03
2022-08-31T08:33:31.989Z,148295.09
2022-08-31T08:36:03.534Z,148337.91
2022-08-31T08:38:31.401Z,148362.47
2022-08-31T08:41:04.638Z,148317.13
2022-08-31T08:43:38.381Z,148312.22
2022-08-31T08:46:31.171Z,148322.03
2022-08-31T08:49:00.257Z,148336.69
2022-08-31T08:51:38.287Z,148266.94
2022-08-31T08:54:13.114Z,148309.78
2022-08-31T08:56:47.057Z,148339.16
2022-08-31T08:59:19.992Z,148312.22
2022-08-31T09:01:53.978Z,148306.13
2022-08-31T09:05:03.005Z,148303.66
2022-08-31T09:08:18.033Z,148330.59
2022-08-31T09:11:17.500Z,148388.16
2022-08-31T09:13:49.047Z,148444.50
2022-08-31T09:16:35.074Z,148471.44
2022-08-31T09:19:12.073Z,148422.44
2022-08-31T09:21:51.039Z,148484.84
2022-08-31T09:24:26.712Z,148494.69
2022-08-31T09:27:18.499Z,148547.38
2022-08-31T09:29:52.390Z,148547.38
2022-08-31T09:32:26.671Z,148552.25
2022-08-31T09:35:01.467Z,148620.84
2022-08-31T09:37:33.178Z,148562.06
2022-08-31T09:40:39.142Z,148536.31
2022-08-31T09:43:23.785Z,148482.44
2022-08-31T09:46:09.029Z,148468.97
2022-08-31T09:48:51.890Z,148462.84
2022-08-31T09:51:24.506Z,148429.75
2022-08-31T09:54:10.665Z,148379.63
2022-08-31T09:56:57.955Z,148422.44
2022-08-31T09:59:48.276Z,148417.53
2022-08-31T10:02:22.092Z,148457.97
2022-08-31T10:04:56.102Z,148412.66
2022-08-31T10:07:48.917Z,148532.63
2022-08-31T10:10:31.132Z,148544.94
2022-08-31T10:13:21.961Z,148563.31
2022-08-31T10:15:58.244Z,148532.63
2022-08-31T10:18:50.626Z,148620.84
2022-08-31T10:21:23.461Z,148629.41
2022-08-31T10:24:07.442Z,148664.97
2022-08-31T10:26:46.928Z,148617.16
2022-08-31T10:29:24.661Z,148655.16
2022-08-31T10:31:56.339Z,148606.16
2022-08-31T10:34:46.424Z,148686.97
2022-08-31T10:37:26.864Z,148598.78
2022-08-31T10:40:03.316Z,148682.06
2022-08-31T10:42:39.156Z,148775.25
2022-08-31T10:45:19.137Z,148917.44
2022-08-31T10:47:49.740Z,148982.41
2022-08-31T10:50:32.279Z,148998.31
2022-08-31T10:53:34.645Z,148976.25
2022-08-31T10:56:23.983Z,148991.00
2022-08-31T10:59:03.499Z,149010.59
2022-08-31T11:01:52.682Z,149026.50
2022-08-31T11:04:51.140Z,149022.88
2022-08-31T11:07:30.209Z,148949.31
2022-08-31T11:10:25.066Z,148968.94
2022-08-31T11:12:58.635Z,148991.00
2022-08-31T11:15:44.356Z,148977.50
2022-08-31T11:18:40.313Z,148868.38
2022-08-31T11:21:39.391Z,148858.56
2022-08-31T11:24:36.439Z,148791.16
2022-08-31T11:27:04.279Z,148875.75
2022-08-31T11:29:37.435Z,148868.38
2022-08-31T11:32:19.984Z,148838.97
2022-08-31T11:34:56.467Z,148802.22
2022-08-31T11:37:53.112Z,148890.44
2022-08-31T11:40:45.321Z,148967.72
2022-08-31T11:43:14.997Z,148978.72
2022-08-31T11:45:43.318Z,148991.00
2022-08-31T11:48:51.097Z,149083.00
2022-08-31T11:51:41.095Z,149111.19
2022-08-31T11:54:41.877Z,149035.09
2022-08-31T11:57:15.399Z,149208.06
2022-08-31T11:59:46.103Z,149228.88
2022-08-31T12:02:19.343Z,149182.28
2022-08-31T12:04:47.388Z,149206.84
2022-08-31T12:07:27.865Z,149187.19
2022-08-31T12:10:07.392Z,149135.69
2022-08-31T12:12:59.238Z,149098.91
2022-08-31T12:15:58.651Z,149091.53
2022-08-31T12:18:41.110Z,149052.28
2022-08-31T12:21:46.046Z,149022.88
2022-08-31T12:25:01.626Z,149025.31
2022-08-31T12:27:53.118Z,149027.78
2022-08-31T12:30:24.470Z,148961.56
2022-08-31T12:33:26.685Z,148978.72
2022-08-31T12:36:16.343Z,148975.03
2022-08-31T12:38:43.572Z,148902.66
2022-08-31T12:41:13.773Z,148798.53
2022-08-31T12:43:48.933Z,148951.75
2022-08-31T12:46:30.357Z,149016.72
2022-08-31T12:49:11.762Z,149096.47
2022-08-31T12:51:45.399Z,149113.63
2022-08-31T12:54:52.730Z,149145.50
2022-08-31T12:57:50.691Z,149157.78
2022-08-31T13:00:34.666Z,149161.47
2022-08-31T13:03:16.679Z,149101.38
2022-08-31T13:06:00.285Z,149123.41
2022-08-31T13:08:27.558Z,149046.16
2022-08-31T13:10:54.706Z,149030.19
2022-08-31T13:13:28.477Z,149094.00
2022-08-31T13:16:04.448Z,149141.81
2022-08-31T13:18:31.623Z,149243.66
2022-08-31T13:21:06.961Z,149327.09
2022-08-31T13:23:48.041Z,149346.72
2022-08-31T13:26:20.549Z,149410.50
2022-08-31T13:28:50.156Z,149425.28
2022-08-31T13:31:21.819Z,149447.38
2022-08-31T13:33:49.252Z,149345.50
2022-08-31T13:36:32.098Z,149189.66
2022-08-31T13:39:04.043Z,149080.50
2022-08-31T13:41:38.416Z,149054.69
2022-08-31T13:44:09.675Z,149010.59
2022-08-31T13:46:44.072Z,148989.72
2022-08-31T13:49:29.585Z,148959.13
2022-08-31T13:51:56.931Z,148902.66
2022-08-31T13:54:31.346Z,148922.34
2022-08-31T13:57:19.475Z,148993.41
2022-08-31T13:59:47.585Z,149075.56
2022-08-31T14:02:16.070Z,149171.28
2022-08-31T14:04:49.150Z,149231.34
2022-08-31T14:07:22.126Z,149333.22
2022-08-31T14:09:51.829Z,149389.63
2022-08-31T14:12:35.272Z,149388.41
2022-08-31T14:15:20.506Z,149372.50
2022-08-31T14:21:23.114Z,149286.59
2022-08-31T14:24:00.934Z,149206.84
2022-08-31T14:26:41.663Z,149235.03
2022-08-31T14:29:12.635Z,149275.53
2022-08-31T14:31:44.301Z,149275.53
2022-08-31T14:34:26.721Z,149227.66
2022-08-31T14:37:06.303Z,149198.25
2022-08-31T14:39:42.558Z,149135.69
2022-08-31T14:42:25.510Z,149116.09
2022-08-31T14:45:08.606Z,149138.16
2022-08-31T14:47:42.558Z,149138.16
2022-08-31T14:50:11.909Z,149113.63
2022-08-31T14:52:42.681Z,149111.19
2022-08-31T14:55:11.223Z,149123.41
2022-08-31T14:57:41.687Z,149145.50
2022-08-31T15:00:11.970Z,149187.19
2022-08-31T15:02:39.104Z,149193.34
2022-08-31T15:05:09.061Z,149280.47
2022-08-31T15:07:40.187Z,149332.00
2022-08-31T15:10:12.732Z,149400.69
2022-08-31T15:12:39.990Z,149425.28
2022-08-31T15:15:09.140Z,149377.41
2022-08-31T15:17:39.642Z,149442.47
2022-08-31T15:20:08.460Z,149440.00
2022-08-31T15:22:38.919Z,149469.47
2022-08-31T15:25:10.039Z,149404.34
2022-08-31T15:27:37.402Z,149332.00
2022-08-31T15:30:07.724Z,149263.31
2022-08-31T15:32:39.669Z,149162.69
2022-08-31T15:35:07.580Z,149119.78
2022-08-31T15:37:34.601Z,149069.44
2022-08-31T15:40:04.255Z,149043.69
2022-08-31T15:42:38.197Z,149071.88
2022-08-31T15:45:06.969Z,149183.50
2022-08-31T15:47:57.599Z,149140.59
2022-08-31T15:50:31.903Z,149143.06
2022-08-31T15:53:09.916Z,149167.59
2022-08-31T15:55:40.460Z,149292.72
2022-08-31T15:58:09.359Z,149508.72
2022-08-31T16:00:37.375Z,149498.91
2022-08-31T16:03:06.009Z,149507.50
2022-08-31T16:05:35.729Z,149589.78
2022-08-31T16:08:03.715Z,149557.81
2022-08-31T16:10:31.109Z,149405.59
2022-08-31T16:12:58.220Z,149496.44
2022-08-31T16:15:26.776Z,149350.41
2022-08-31T16:17:57.459Z,149371.22
2022-08-31T16:20:27.309Z,149360.22
2022-08-31T16:22:55.519Z,149599.59
2022-08-31T16:25:25.249Z,149828.00
2022-08-31T16:27:57.715Z,149797.31
2022-08-31T16:30:25.172Z,149595.91
2022-08-31T16:32:52.566Z,149533.25
2022-08-31T16:35:19.789Z,149366.31
2022-08-31T16:37:46.951Z,149150.41
2022-08-31T16:40:14.281Z,148944.38
2022-08-31T16:42:43.522Z,148900.25
2022-08-31T16:45:11.031Z,148870.78
2022-08-31T16:47:38.255Z,148813.22
2022-08-31T16:50:08.691Z,148821.81
2022-08-31T16:52:35.905Z,148812.00
2022-08-31T16:55:03.599Z,149042.47
2022-08-31T16:57:32.562Z,149378.63
2022-08-31T17:00:00.191Z,149437.56
2022-08-31T17:02:27.794Z,149346.72
2022-08-31T17:05:00.493Z,149268.19
2022-08-31T17:07:28.991Z,149059.66
2022-08-31T17:10:07.301Z,148964.03
2022-08-31T17:12:36.854Z,148862.25
2022-08-31T17:15:04.771Z,148767.88
2022-08-31T17:17:32.980Z,148777.69
2022-08-31T17:20:00.775Z,148721.28
2022-08-31T17:22:33.010Z,148601.25
2022-08-31T17:25:03.919Z,148630.63
2022-08-31T17:27:33.702Z,148634.31
2022-08-31T17:30:01.328Z,148542.47
2022-08-31T17:32:28.712Z,148552.25
2022-08-31T17:34:56.207Z,148514.28
2022-08-31T17:37:36.074Z,148481.22
2022-08-31T17:40:08.003Z,148471.44
2022-08-31T17:42:35.895Z,148456.69
2022-08-31T17:45:05.758Z,148432.22
2022-08-31T17:47:33.298Z,148407.75
2022-08-31T17:50:00.587Z,148378.34
2022-08-31T17:52:28.141Z,148363.69
2022-08-31T17:54:55.383Z,148339.16
2022-08-31T17:57:25.801Z,148329.38
2022-08-31T17:59:54.933Z,148254.69
2022-08-31T18:02:32.226Z,148280.41
2022-08-31T18:05:00.850Z,148197.22
2022-08-31T18:07:28.582Z,148253.50
2022-08-31T18:09:55.885Z,148246.19
2022-08-31T18:12:25.470Z,148226.56
2022-08-31T18:14:53.903Z,148226.56
2022-08-31T18:17:23.814Z,148238.81
2022-08-31T18:19:50.963Z,148198.44
2022-08-31T18:22:19.779Z,148210.69
2022-08-31T18:24:46.987Z,148238.81
2022-08-31T18:27:17.628Z,148128.66
2022-08-31T18:29:46.132Z,148229.03
2022-08-31T18:32:14.209Z,148193.53
2022-08-31T18:34:44.797Z,148184.97
2022-08-31T18:37:13.003Z,148162.94
2022-08-31T18:40:04.195Z,148128.66
2022-08-31T18:42:52.433Z,148118.88
2022-08-31T18:45:20.087Z,148041.81
2022-08-31T18:48:20.806Z,148057.69
2022-08-31T18:50:44.186Z,148034.44
2022-08-31T18:53:15.262Z,148016.09
2022-08-31T18:55:45.176Z,148002.66
2022-08-31T18:58:12.982Z,148003.91
2022-08-31T19:00:40.454Z,147977.00
2022-08-31T19:03:07.751Z,147967.22
2022-08-31T19:05:38.549Z,147967.22
2022-08-31T19:08:05.785Z,148007.59
2022-08-31T19:10:34.737Z,147979.41
2022-08-31T19:13:07.305Z,148006.34
2022-08-31T19:15:38.841Z,148019.78
2022-08-31T19:18:06.383Z,148012.47
2022-08-31T19:20:35.560Z,147991.66
2022-08-31T19:23:03.066Z,147962.34
2022-08-31T19:25:32.147Z,147932.91
2022-08-31T19:28:03.427Z,147925.59
2022-08-31T19:30:33.084Z,147915.84
2022-08-31T19:33:05.621Z,147920.72
2022-08-31T19:35:33.380Z,147952.56
2022-08-31T19:38:00.527Z,147942.75
2022-08-31T19:40:38.364Z,147940.31
2022-08-31T19:45:54.231Z,147871.81
2022-08-31T19:48:23.623Z,147859.56
2022-08-31T19:50:52.212Z,147830.25
2022-08-31T19:53:21.436Z,147837.53
2022-08-31T19:55:52.533Z,147815.59
2022-08-31T19:58:26.587Z,147717.78
2022-08-31T20:01:00.584Z,147805.81
2022-08-31T20:03:31.162Z,147803.34
2022-08-31T20:05:59.478Z,147781.34
2022-08-31T20:08:26.733Z,147780.13
2022-08-31T20:10:53.850Z,147753.22
2022-08-31T20:13:30.338Z,147767.88
2022-08-31T20:15:58.827Z,147776.44
2022-08-31T20:18:28.362Z,147776.44
2022-08-31T20:20:56.760Z,147778.91
2022-08-31T20:23:23.908Z,147770.34
2022-08-31T20:25:51.515Z,147725.13
2022-08-31T20:28:27.031Z,147687.22
2022-08-31T20:30:59.919Z,147692.09
2022-08-31T20:33:27.643Z,147642.00
2022-08-31T20:35:54.780Z,147590.69
2022-08-31T20:38:21.946Z,147656.66
2022-08-31T20:40:52.559Z,147651.75
2022-08-31T20:43:21.317Z,147595.59
2022-08-31T20:45:48.805Z,147541.81
2022-08-31T20:48:34.205Z,147571.13
2022-08-31T20:51:16.106Z,147546.69
2022-08-31T20:53:44.302Z,147519.81
2022-08-31T20:56:17.052Z,147532.06
2022-08-31T20:58:45.969Z,147514.94
2022-08-31T21:01:13.881Z,147494.22
2022-08-31T21:03:41.382Z,147492.94
2022-08-31T21:06:11.511Z,147461.16
2022-08-31T21:08:40.881Z,147455.06
2022-08-31T21:11:16.092Z,147458.72
2022-08-31T21:13:44.639Z,147451.38
2022-08-31T21:16:12.236Z,147453.84
2022-08-31T21:18:40.402Z,147446.50
2022-08-31T21:21:14.451Z,147429.41
2022-08-31T21:23:41.679Z,147424.50
2022-08-31T21:26:08.818Z,147456.28
2022-08-31T21:28:39.479Z,147436.75
2022-08-31T21:31:16.466Z,147409.88
2022-08-31T21:33:59.354Z,147430.66
2022-08-31T21:36:27.642Z,147412.34
2022-08-31T21:38:56.829Z,147419.63
2022-08-31T21:41:27.821Z,147402.56
2022-08-31T21:43:56.901Z,147397.66
2022-08-31T21:46:26.645Z,147356.13
2022-08-31T21:48:56.962Z,147346.38
2022-08-31T21:51:27.879Z,147326.84
2022-08-31T21:54:01.425Z,147302.47
2022-08-31T21:56:31.626Z,147302.47
2022-08-31T21:58:59.708Z,147263.38
2022-08-31T22:01:29.552Z,147262.16
2022-08-31T22:03:59.040Z,147275.59
2022-08-31T22:06:29.040Z,147238.94
2022-08-31T22:09:02.050Z,147248.75
2022-08-31T22:11:31.702Z,147238.94
2022-08-31T22:13:59.521Z,147109.59
2022-08-31T22:16:27.633Z,147158.38
2022-08-31T22:19:01.179Z,147163.25
2022-08-31T22:21:33.057Z,147168.13
2022-08-31T22:24:03.812Z,147155.97
2022-08-31T22:26:34.754Z,147098.59
2022-08-31T22:29:01.928Z,147122.97
2022-08-31T22:31:29.203Z,147097.38
2022-08-31T22:33:57.070Z,147126.66
2022-08-31T22:36:34.424Z,147124.22
2022-08-31T22:39:08.911Z,147029.06
2022-08-31T22:41:37.886Z,147013.19
2022-08-31T22:44:06.344Z,147058.31
2022-08-31T22:46:35.044Z,147047.38
2022-08-31T22:49:02.846Z,147036.41
2022-08-31T22:51:30.130Z,147063.19
2022-08-31T22:53:57.210Z,147059.56
2022-08-31T22:56:27.559Z,146971.66
2022-08-31T22:58:59.402Z,147031.47
2022-08-31T23:01:32.939Z,147016.84
2022-08-31T23:04:05.946Z,147009.56
2022-08-31T23:06:35.618Z,147020.50
2022-08-31T23:09:04.835Z,147043.69
2022-08-31T23:11:31.902Z,147035.16
2022-08-31T23:14:02.841Z,146997.34
2022-08-31T23:16:36.699Z,147004.69
2022-08-31T23:19:11.033Z,146953.38
2022-08-31T23:21:46.609Z,146940.00
2022-08-31T23:24:24.202Z,146915.59
2022-08-31T23:26:52.974Z,146892.41
2022-08-31T23:29:21.648Z,146877.78
2022-08-31T23:31:48.784Z,146870.47
2022-08-31T23:34:16.735Z,146844.88
2022-08-31T23:36:48.791Z,146863.19
2022-08-31T23:39:20.934Z,146843.63
2022-08-31T23:41:48.469Z,146836.34
2022-08-31T23:44:16.171Z,146863.19
2022-08-31T23:46:43.773Z,146830.25
2022-08-31T23:49:14.601Z,146796.09
2022-08-31T23:51:42.073Z,146769.28
2022-08-31T23:54:12.381Z,146759.53
2022-08-31T23:56:42.365Z,146757.13
2022-08-31T23:59:13.928Z,146753.47
